Time;durP1;ratioP1;P1;durP2;ratioP2;P2;SDS_P1;SDS_P2;PMS_P1;PMS_P2;Temp;Humidity;BMP_temperature;BMP_pressure;BME280_temperature;BME280_humidity;BME280_pressure;Samples;Min_cycle;Max_cycle;Signal;HPM_P1;HPM_P2
2024/03/14 00:01:40;;;;;;;;;12.25;10.25;;;;;11.93;79.61;100975.91;5060827;28;62506;-62
2024/03/14 00:04:05;;;;;;;;;10.75;9.00;;;;;11.92;79.27;100974.16;5071045;28;45827;-62
2024/03/14 00:06:30;;;;;;;;;16.50;10.50;;;;;11.92;79.50;100975.94;5058793;28;68314;-63
2024/03/14 00:08:57;;;;;;;;;11.25;9.50;;;;;11.90;79.57;100973.34;5071869;27;68708;-62
2024/03/14 00:11:22;;;;;;;;;13.50;10.50;;;;;11.86;79.53;100966.41;5066718;28;45943;-62
2024/03/14 00:13:47;;;;;;;;;15.25;10.50;;;;;11.86;79.50;100961.19;5068905;28;69875;-61
2024/03/14 00:16:13;;;;;;;;;63.00;47.00;;;;;11.85;79.51;100963.88;5062136;27;50445;-62
2024/03/14 00:18:39;;;;;;;;;21.25;15.25;;;;;11.83;79.25;100960.41;5063821;28;45423;-63
2024/03/14 00:21:09;;;;;;;;;15.50;10.25;;;;;11.82;79.39;100958.72;5068590;27;45341;-62
2024/03/14 00:23:36;;;;;;;;;12.25;9.50;;;;;11.78;79.82;100952.69;5060859;28;45672;-63
2024/03/14 00:26:01;;;;;;;;;14.75;12.25;;;;;11.77;80.12;100954.47;5068657;28;45242;-60
2024/03/14 00:28:26;;;;;;;;;13.50;10.00;;;;;11.74;79.68;100949.28;5067456;27;62665;-61
2024/03/14 00:30:51;;;;;;;;;17.75;12.00;;;;;11.73;80.26;100952.81;5068232;27;48559;-62
2024/03/14 00:33:17;;;;;;;;;13.75;12.25;;;;;11.72;80.06;100947.59;5069615;28;73182;-62
2024/03/14 00:35:42;;;;;;;;;14.50;12.25;;;;;11.70;80.54;100952.03;5063761;28;59922;-62
2024/03/14 00:38:08;;;;;;;;;13.50;11.75;;;;;11.68;80.54;100949.44;5069707;27;71465;-62
2024/03/14 00:40:35;;;;;;;;;18.50;13.75;;;;;11.65;80.24;100952.19;5078006;28;46202;-63
2024/03/14 00:43:01;;;;;;;;;13.25;10.50;;;;;11.65;80.35;100949.56;5050886;28;45463;-63
2024/03/14 00:45:26;;;;;;;;;11.25;11.25;;;;;11.62;80.33;100939.16;5075199;28;45364;-63
2024/03/14 00:47:52;;;;;;;;;14.75;10.50;;;;;11.59;80.79;100937.47;5069716;27;73749;-62
2024/03/14 00:50:19;;;;;;;;;15.00;11.25;;;;;11.57;80.44;100941.03;5073945;27;48962;-62
2024/03/14 00:52:44;;;;;;;;;14.00;12.00;;;;;11.54;80.67;100942.00;5072882;28;45282;-62
2024/03/14 00:55:10;;;;;;;;;14.50;14.50;;;;;11.52;80.78;100935.06;5065885;28;45415;-63
2024/03/14 00:57:36;;;;;;;;;16.75;15.00;;;;;11.47;80.59;100935.19;5061548;28;47511;-64
2024/03/14 01:00:10;;;;;;;;;13.75;13.75;;;;;11.46;80.79;100937.88;5069005;27;46119;-62
2024/03/14 01:02:35;;;;;;;;;15.50;12.00;;;;;11.44;80.64;100930.03;5080789;28;45540;-62
2024/03/14 01:05:04;;;;;;;;;14.50;10.50;;;;;11.43;81.03;100935.31;5072406;28;45237;-61
2024/03/14 01:07:29;;;;;;;;;11.00;11.00;;;;;11.40;81.34;100928.38;5064234;28;45527;-62
2024/03/14 01:09:55;;;;;;;;;16.00;11.00;;;;;11.37;80.93;100928.50;5064037;27;47269;-62
2024/03/14 01:12:20;;;;;;;;;14.50;10.25;;;;;11.38;81.27;100931.06;5089606;27;75313;-62
2024/03/14 01:14:46;;;;;;;;;12.75;11.50;;;;;11.36;81.41;100917.13;5065254;27;68884;-62
2024/03/14 01:17:11;;;;;;;;;14.00;10.00;;;;;11.36;81.15;100925.00;5060974;28;45288;-62
2024/03/14 01:19:37;;;;;;;;;15.50;12.00;;;;;11.34;81.64;100923.34;5064820;27;46189;-62
2024/03/14 01:22:03;;;;;;;;;16.25;12.75;;;;;11.33;81.29;100919.84;5065617;28;45437;-63
2024/03/14 01:24:29;;;;;;;;;15.75;12.50;;;;;11.32;81.46;100918.13;5069214;28;45218;-63
2024/03/14 01:26:54;;;;;;;;;15.00;13.50;;;;;11.29;81.23;100923.44;5062116;28;45572;-62
2024/03/14 01:29:20;;;;;;;;;15.00;12.00;;;;;11.29;81.67;100919.97;5071778;27;45413;-62
2024/03/14 01:31:46;;;;;;;;;14.00;14.00;;;;;11.28;81.47;100910.38;5070296;28;45229;-63
2024/03/14 01:34:12;;;;;;;;;16.50;12.25;;;;;11.25;82.14;100911.34;5078276;28;45342;-62
2024/03/14 01:36:38;;;;;;;;;16.75;15.00;;;;;11.24;82.02;100912.22;5061624;28;45266;-62
2024/03/14 01:39:09;;;;;;;;;16.25;11.25;;;;;11.23;81.98;100914.91;5073846;27;46232;-61
2024/03/14 01:41:35;;;;;;;;;14.75;12.75;;;;;11.21;82.24;100905.31;5077556;28;45228;-62
2024/03/14 01:44:00;;;;;;;;;14.75;10.50;;;;;11.20;81.83;100914.06;5069338;28;69424;-62
2024/03/14 01:46:29;;;;;;;;;18.50;15.00;;;;;11.19;82.38;100906.25;5070798;28;45264;-62
2024/03/14 01:48:55;;;;;;;;;17.25;13.00;;;;;11.15;82.34;100904.63;5069381;27;46908;-62
2024/03/14 01:51:24;;;;;;;;;15.75;15.00;;;;;11.15;82.19;100897.63;5069464;27;45379;-62
2024/03/14 01:53:50;;;;;;;;;15.75;14.50;;;;;11.14;82.60;100893.28;5063810;28;45215;-62
2024/03/14 01:56:21;;;;;;;;;16.75;14.00;;;;;11.14;82.24;100895.91;5062987;28;45519;-62
2024/03/14 01:58:48;;;;;;;;;12.75;12.50;;;;;11.12;82.16;100894.22;5075661;27;46218;-62
2024/03/14 02:01:13;;;;;;;;;13.75;13.75;;;;;11.10;82.71;100891.66;5083806;27;45455;-61
2024/03/14 02:03:41;;;;;;;;;11.75;10.00;;;;;11.09;82.75;100886.47;5070210;28;69297;-62
2024/03/14 02:06:18;;;;;;;;;12.50;12.25;;;;;11.08;82.72;100887.34;5063975;27;45516;-61
2024/03/14 02:08:44;;;;;;;;;12.75;12.50;;;;;11.06;82.70;100884.78;5072661;27;46316;-61
2024/03/14 02:11:10;;;;;;;;;14.25;14.25;;;;;11.04;82.48;100872.63;5066013;27;45407;-64
2024/03/14 02:13:35;;;;;;;;;20.50;16.50;;;;;11.05;82.84;100874.34;5061614;28;45583;-61
2024/03/14 02:16:01;;;;;;;;;15.75;13.75;;;;;11.02;83.08;100868.28;5070557;28;46352;-62
2024/03/14 02:18:26;;;;;;;;;17.50;14.00;;;;;11.01;82.72;100873.56;5064794;27;49005;-61
2024/03/14 02:20:51;;;;;;;;;19.00;13.50;;;;;10.99;82.95;100872.75;5065900;27;45620;-60
2024/03/14 02:23:17;;;;;;;;;18.00;13.50;;;;;10.98;82.60;100866.66;5062904;28;68243;-62
2024/03/14 02:25:42;;;;;;;;;14.25;11.25;;;;;10.97;82.99;100862.31;5067350;28;45555;-62
2024/03/14 02:28:08;;;;;;;;;17.25;15.00;;;;;10.96;82.98;100865.84;5067825;27;46465;-61
2024/03/14 02:30:33;;;;;;;;;12.50;12.00;;;;;10.95;83.17;100856.25;5065298;27;45369;-62
2024/03/14 02:32:59;;;;;;;;;17.00;13.50;;;;;10.94;83.09;100854.56;5071026;27;66318;-61
2024/03/14 02:35:24;;;;;;;;;17.75;15.50;;;;;10.93;83.00;100844.97;5060152;28;73266;-62
2024/03/14 02:37:52;;;;;;;;;17.25;14.00;;;;;10.91;83.07;100836.28;5060436;28;45285;-62
2024/03/14 02:40:18;;;;;;;;;17.00;12.00;;;;;10.91;83.13;100840.69;5062317;27;47653;-61
2024/03/14 02:42:44;;;;;;;;;14.50;14.00;;;;;10.89;83.33;100840.72;5060840;28;45351;-60
2024/03/14 02:45:10;;;;;;;;;14.50;11.25;;;;;10.87;83.27;100832.06;5060579;28;45528;-62
2024/03/14 02:47:36;;;;;;;;;15.25;12.50;;;;;10.83;83.33;100827.78;5070254;28;74385;-61
2024/03/14 02:50:02;;;;;;;;;16.00;11.25;;;;;10.81;83.22;100835.66;5063489;27;45371;-62
2024/03/14 02:52:27;;;;;;;;;13.75;12.75;;;;;10.75;83.22;100822.75;5067487;28;46009;-62
2024/03/14 02:54:53;;;;;;;;;9.50;8.75;;;;;10.77;83.26;100825.34;5064948;28;45344;-61
2024/03/14 02:57:18;;;;;;;;;14.25;10.50;;;;;10.76;83.31;100827.06;5060876;28;45893;-62
2024/03/14 02:59:43;;;;;;;;;12.00;9.75;;;;;10.73;83.55;100819.31;5073883;27;61581;-61
2024/03/14 03:02:10;;;;;;;;;16.75;11.25;;;;;10.72;83.43;100820.22;5062231;28;57621;-62
2024/03/14 03:04:37;;;;;;;;;9.25;7.75;;;;;10.71;83.65;100821.13;5060659;28;45562;-61
2024/03/14 03:07:05;;;;;;;;;17.25;14.00;;;;;10.70;83.30;100822.00;5064375;28;46952;-62
2024/03/14 03:09:31;;;;;;;;;10.00;10.00;;;;;10.68;83.38;100817.69;5069875;27;45842;-61
2024/03/14 03:11:57;;;;;;;;;15.50;13.00;;;;;10.68;83.53;100815.97;5070935;28;45323;-61
2024/03/14 03:14:23;;;;;;;;;14.25;9.75;;;;;10.67;83.63;100816.84;5068710;28;45444;-62
2024/03/14 03:16:49;;;;;;;;;14.50;13.50;;;;;10.66;83.73;100809.03;5059335;28;47515;-62
2024/03/14 03:19:14;;;;;;;;;18.50;14.25;;;;;10.65;83.88;100816.03;5074792;27;45446;-61
2024/03/14 03:21:40;;;;;;;;;12.25;11.00;;;;;10.66;83.58;100816.88;5074798;28;45500;-60
2024/03/14 03:24:08;;;;;;;;;14.00;12.00;;;;;10.62;83.89;100809.13;5068382;27;45461;-62
2024/03/14 03:26:34;;;;;;;;;17.25;14.50;;;;;10.65;83.94;100802.94;5073102;28;45465;-61
2024/03/14 03:29:01;;;;;;;;;18.25;16.75;;;;;10.64;83.80;100806.44;5068670;27;45497;-60
2024/03/14 03:31:26;;;;;;;;;15.25;14.50;;;;;10.64;83.75;100807.34;5075876;28;45463;-60
2024/03/14 03:33:51;;;;;;;;;13.50;13.00;;;;;10.63;83.91;100810.84;5068259;28;45465;-61
2024/03/14 03:36:17;;;;;;;;;16.00;10.50;;;;;10.60;84.11;100802.22;5066075;28;74607;-60
2024/03/14 03:38:45;;;;;;;;;16.00;11.50;;;;;10.57;83.95;100803.16;5067995;28;63586;-61
2024/03/14 03:41:12;;;;;;;;;14.00;13.75;;;;;10.55;83.70;100797.13;5058847;28;45328;-62
2024/03/14 03:43:37;;;;;;;;;17.50;12.75;;;;;10.54;83.83;100791.91;5061535;28;45470;-61
2024/03/14 03:46:06;;;;;;;;;15.00;13.00;;;;;10.49;84.11;100783.31;5069784;28;46443;-61
2024/03/14 03:48:32;;;;;;;;;15.50;13.50;;;;;10.50;84.08;100783.28;5068115;27;45983;-61
2024/03/14 03:50:57;;;;;;;;;19.50;15.75;;;;;10.49;84.24;100789.41;5059697;28;45401;-61
2024/03/14 03:53:24;;;;;;;;;14.75;13.00;;;;;10.47;83.93;100788.59;5066207;28;71555;-63
2024/03/14 03:55:49;;;;;;;;;14.00;14.00;;;;;10.47;83.94;100785.13;5065970;28;47021;-62
2024/03/14 03:58:14;;;;;;;;;13.50;11.00;;;;;10.46;84.25;100784.25;5072395;27;70237;-63
2024/03/14 04:00:46;;;;;;;;;17.00;14.25;;;;;10.42;84.11;100777.38;5062380;27;69204;-62
2024/03/14 04:03:11;;;;;;;;;14.75;10.25;;;;;10.43;84.09;100779.13;5064377;28;45444;-61
2024/03/14 04:05:42;;;;;;;;;16.00;10.25;;;;;10.42;83.91;100780.84;5067345;28;45371;-62
2024/03/14 04:08:08;;;;;;;;;15.00;11.75;;;;;10.42;83.95;100777.38;5061190;28;46114;-62
2024/03/14 04:10:33;;;;;;;;;15.25;13.25;;;;;10.43;83.93;100774.72;5070188;28;45474;-61
2024/03/14 04:13:00;;;;;;;;;12.75;10.00;;;;;10.46;83.75;100779.00;5071562;27;45351;-61
2024/03/14 04:15:25;;;;;;;;;14.50;11.50;;;;;10.46;84.10;100776.41;5059416;27;46218;-62
2024/03/14 04:17:51;;;;;;;;;12.50;11.00;;;;;10.49;84.05;100765.84;5071299;28;45555;-60
2024/03/14 04:20:17;;;;;;;;;9.25;9.25;;;;;10.49;84.14;100762.38;5076660;27;45486;-62
2024/03/14 04:22:44;;;;;;;;;12.25;9.00;;;;;10.55;83.93;100762.22;5069317;28;45697;-62
2024/03/14 04:25:17;;;;;;;;;15.00;12.25;;;;;10.57;83.61;100760.41;5068956;28;45416;-61
2024/03/14 04:27:46;;;;;;;;;21.50;14.75;;;;;10.59;83.58;100764.72;5070422;28;45458;-61
2024/03/14 04:30:14;;;;;;;;;14.00;12.00;;;;;10.62;83.91;100763.75;5062724;27;45484;-62
2024/03/14 04:32:39;;;;;;;;;15.75;13.50;;;;;10.67;83.70;100764.50;5070819;27;45395;-60
2024/03/14 04:35:08;;;;;;;;;13.75;11.50;;;;;10.69;83.54;100756.63;5091821;27;45811;-60
2024/03/14 04:37:33;;;;;;;;;13.75;12.00;;;;;10.70;83.75;100759.19;5057798;28;45758;-61
2024/03/14 04:39:59;;;;;;;;;15.75;12.00;;;;;10.71;83.26;100747.84;5069768;27;45284;-61
2024/03/14 04:42:24;;;;;;;;;14.00;12.00;;;;;10.73;83.55;100748.66;5068865;28;74360;-62
2024/03/14 04:44:51;;;;;;;;;12.50;12.25;;;;;10.77;83.68;100738.94;5063747;28;50562;-61
2024/03/14 04:47:16;;;;;;;;;10.50;7.75;;;;;10.78;82.96;100732.81;5059265;28;45273;-62
2024/03/14 04:49:42;;;;;;;;;14.50;9.75;;;;;10.77;83.14;100728.47;5066517;28;45458;-62
2024/03/14 04:52:07;;;;;;;;;13.25;10.25;;;;;10.78;83.06;100732.81;5061432;28;45814;-62
2024/03/14 04:54:32;;;;;;;;;10.25;9.25;;;;;10.77;82.82;100731.09;5070491;28;65175;-62
2024/03/14 04:57:01;;;;;;;;;9.75;8.00;;;;;10.76;82.89;100729.38;5064321;28;50857;-62
2024/03/14 04:59:30;;;;;;;;;10.25;9.50;;;;;10.74;82.84;100731.19;5073495;27;45399;-62
2024/03/14 05:01:56;;;;;;;;;12.00;9.50;;;;;10.71;82.71;100726.91;5076776;28;45401;-61
2024/03/14 05:04:21;;;;;;;;;9.50;9.00;;;;;10.70;82.83;100740.88;5068365;28;47090;-61
2024/03/14 05:06:47;;;;;;;;;11.75;9.00;;;;;10.69;82.82;100728.69;5070010;28;45547;-62
2024/03/14 05:09:12;;;;;;;;;8.75;8.75;;;;;10.69;83.00;100733.91;5067873;27;45357;-62
2024/03/14 05:11:38;;;;;;;;;10.75;9.75;;;;;10.70;82.63;100727.78;5075646;27;45429;-61
2024/03/14 05:14:04;;;;;;;;;11.00;9.00;;;;;10.69;82.84;100736.53;5072136;28;74555;-62
2024/03/14 05:16:30;;;;;;;;;10.50;8.50;;;;;10.70;82.87;100735.63;5074367;27;45371;-60
2024/03/14 05:18:55;;;;;;;;;11.00;7.50;;;;;10.68;82.86;100736.56;5074462;27;45351;-61
2024/03/14 05:21:21;;;;;;;;;9.50;8.25;;;;;10.68;82.88;100733.94;5070371;27;45476;-61
2024/03/14 05:23:46;;;;;;;;;9.00;8.00;;;;;10.68;82.71;100741.81;5078035;27;71358;-61
2024/03/14 05:26:11;;;;;;;;;12.25;8.75;;;;;10.66;82.83;100734.03;5075843;27;45395;-60
2024/03/14 05:28:37;;;;;;;;;13.25;10.25;;;;;10.65;82.88;100742.75;5077778;27;45473;-60
2024/03/14 05:31:03;;;;;;;;;11.50;8.75;;;;;10.64;82.69;100725.31;5062673;28;61607;-60
2024/03/14 05:33:28;;;;;;;;;16.25;12.50;;;;;10.61;82.81;100728.03;5069097;27;45499;-60
2024/03/14 05:35:54;;;;;;;;;9.00;9.00;;;;;10.59;82.97;100733.31;5069921;28;45561;-61
2024/03/14 05:38:19;;;;;;;;;13.00;9.00;;;;;10.57;82.64;100739.47;5068940;27;45317;-61
2024/03/14 05:40:45;;;;;;;;;9.50;7.75;;;;;10.53;82.70;100741.31;5070102;28;69096;-62
2024/03/14 05:43:11;;;;;;;;;10.25;8.00;;;;;10.49;82.79;100736.22;5064944;27;45572;-62
2024/03/14 05:45:36;;;;;;;;;11.00;9.25;;;;;10.43;82.53;100735.47;5067680;27;45387;-61
2024/03/14 05:48:11;;;;;;;;;12.75;9.00;;;;;10.38;82.60;100733.91;5068328;27;45331;-61
2024/03/14 05:50:37;;;;;;;;;14.25;11.25;;;;;10.36;82.51;100727.84;5065911;28;45498;-61
2024/03/14 05:53:02;;;;;;;;;12.75;12.00;;;;;10.33;82.72;100735.78;5069349;27;46290;-62
2024/03/14 05:55:29;;;;;;;;;12.50;7.00;;;;;10.28;83.05;100733.22;5064727;28;45376;-61
2024/03/14 05:57:55;;;;;;;;;10.50;9.25;;;;;10.26;83.01;100737.66;5069447;27;45367;-61
2024/03/14 06:00:21;;;;;;;;;16.50;11.00;;;;;10.22;83.21;100729.03;5068717;27;46931;-62
2024/03/14 06:02:46;;;;;;;;;13.00;12.50;;;;;10.20;83.08;100727.34;5061764;28;46943;-61
2024/03/14 06:05:12;;;;;;;;;13.75;11.75;;;;;10.18;83.05;100727.38;5076029;27;45546;-61
2024/03/14 06:07:38;;;;;;;;;14.00;9.75;;;;;10.16;83.05;100723.09;5074230;27;46852;-61
2024/03/14 06:10:04;;;;;;;;;13.50;12.00;;;;;10.14;83.47;100730.13;5072592;27;45683;-61
2024/03/14 06:12:29;;;;;;;;;13.75;12.00;;;;;10.14;83.52;100730.13;5072016;27;46761;-60
2024/03/14 06:14:54;;;;;;;;;13.25;11.75;;;;;10.13;82.97;100731.00;5063955;27;45271;-61
2024/03/14 06:17:20;;;;;;;;;16.25;12.00;;;;;10.11;83.47;100722.34;5064458;28;45979;-61
2024/03/14 06:19:46;;;;;;;;;12.25;11.00;;;;;10.11;83.57;100724.94;5072366;27;75058;-61
2024/03/14 06:22:14;;;;;;;;;11.75;10.25;;;;;10.11;83.45;100727.56;5076957;28;45251;-61
2024/03/14 06:24:43;;;;;;;;;11.50;8.00;;;;;10.10;83.49;100731.09;5078892;27;45902;-61
2024/03/14 06:27:08;;;;;;;;;11.25;9.00;;;;;10.08;83.57;100724.13;5065246;27;45262;-62
2024/03/14 06:29:34;;;;;;;;;11.25;8.00;;;;;10.08;83.68;100729.38;5074862;27;47004;-61
2024/03/14 06:31:59;;;;;;;;;11.50;10.25;;;;;10.09;83.37;100724.97;5064955;28;46060;-61
2024/03/14 06:34:25;;;;;;;;;11.50;9.25;;;;;10.09;83.70;100727.59;5066942;28;59984;-61
2024/03/14 06:36:50;;;;;;;;;12.25;12.25;;;;;10.09;83.22;100719.75;5064719;28;45435;-62
2024/03/14 06:39:17;;;;;;;;;11.50;9.00;;;;;10.08;83.61;100712.81;5072527;27;66477;-61
2024/03/14 06:41:43;;;;;;;;;15.25;11.75;;;;;10.06;83.74;100710.25;5075296;27;45387;-60
2024/03/14 06:44:11;;;;;;;;;12.25;10.75;;;;;10.08;83.51;100707.59;5071094;28;45820;-61
2024/03/14 06:46:39;;;;;;;;;15.50;12.75;;;;;10.08;83.80;100712.81;5064766;28;45610;-58
2024/03/14 06:49:12;;;;;;;;;17.25;11.00;;;;;10.10;83.92;100708.41;5073961;27;45343;-59
2024/03/14 06:51:38;;;;;;;;;12.00;12.00;;;;;10.12;83.64;100711.84;5063416;28;46236;-66
2024/03/14 06:54:04;;;;;;;;;14.75;11.25;;;;;10.13;83.70;100703.13;5068774;28;45737;-67
2024/03/14 06:56:30;;;;;;;;;18.75;13.00;;;;;10.16;83.93;100707.38;5065809;27;45406;-64
2024/03/14 06:58:55;;;;;;;;;14.50;13.25;;;;;10.21;83.67;100700.28;5075294;27;45437;-63
2024/03/14 07:01:21;;;;;;;;;15.50;12.00;;;;;10.20;84.01;100698.59;5064620;28;45378;-61
2024/03/14 07:03:46;;;;;;;;;14.50;12.00;;;;;10.26;83.69;100701.03;5061510;28;45440;-65
2024/03/14 07:06:12;;;;;;;;;13.25;12.00;;;;;10.31;83.82;100696.56;5066971;27;45978;-61
2024/03/14 07:08:37;;;;;;;;;13.50;13.25;;;;;10.34;83.65;100696.50;5068380;27;46445;-62
2024/03/14 07:11:04;;;;;;;;;13.00;12.00;;;;;10.35;83.77;100689.50;5063911;27;46641;-60
2024/03/14 07:13:30;;;;;;;;;19.75;13.75;;;;;10.39;83.52;100693.75;5073167;28;45476;-60
2024/03/14 07:15:55;;;;;;;;;15.50;14.00;;;;;10.43;83.60;100696.25;5064066;27;45358;-60
2024/03/14 07:18:20;;;;;;;;;16.75;12.50;;;;;10.48;83.42;100696.09;5064248;28;74072;-60
2024/03/14 07:20:46;;;;;;;;;16.25;12.00;;;;;10.51;83.09;100698.63;5064634;27;63331;-66
2024/03/14 07:23:13;;;;;;;;;14.00;12.25;;;;;10.56;83.21;100701.16;5084557;27;45663;-63
2024/03/14 07:25:38;;;;;;;;;14.00;12.50;;;;;10.60;83.24;100703.63;5066558;28;45355;-63
2024/03/14 07:28:04;;;;;;;;;14.75;11.00;;;;;10.63;83.00;100702.69;5064496;27;45482;-62
2024/03/14 07:30:30;;;;;;;;;15.25;10.25;;;;;10.68;83.02;100707.78;5071232;28;46239;-62
2024/03/14 07:32:56;;;;;;;;;17.75;14.75;;;;;10.71;82.44;100705.97;5063804;28;45763;-63
2024/03/14 07:35:23;;;;;;;;;22.00;17.00;;;;;10.74;82.79;100698.00;5068798;28;45256;-63
2024/03/14 07:37:48;;;;;;;;;18.25;16.25;;;;;10.79;82.52;100706.59;5067789;28;45454;-62
2024/03/14 07:40:16;;;;;;;;;14.00;13.00;;;;;10.82;82.77;100703.03;5070921;27;46570;-62
2024/03/14 07:42:43;;;;;;;;;20.00;15.00;;;;;10.88;82.67;100705.47;5061806;27;45653;-63
2024/03/14 07:45:13;;;;;;;;;14.50;12.75;;;;;10.93;82.25;100703.56;5066908;28;45243;-61
2024/03/14 07:47:38;;;;;;;;;15.75;11.75;;;;;10.97;82.19;100699.97;5070088;27;45501;-63
2024/03/14 07:50:05;;;;;;;;;11.50;9.25;;;;;11.00;81.96;100696.41;5063288;27;75607;-62
2024/03/14 07:52:32;;;;;;;;;18.75;13.50;;;;;11.04;81.70;100692.78;5063645;28;46015;-63
2024/03/14 07:54:57;;;;;;;;;18.75;16.00;;;;;11.08;81.82;100699.63;5070512;28;46193;-63
2024/03/14 07:57:22;;;;;;;;;14.00;13.50;;;;;11.14;81.21;100693.38;5077644;27;45225;-63
2024/03/14 07:59:48;;;;;;;;;14.00;13.00;;;;;11.19;81.63;100694.97;5063029;27;66199;-64
2024/03/14 08:02:13;;;;;;;;;12.00;9.00;;;;;11.26;81.39;100695.63;5061929;28;64998;-61
2024/03/14 08:04:41;;;;;;;;;14.75;13.00;;;;;11.34;81.15;100700.63;5089101;27;45438;-62
2024/03/14 08:07:18;;;;;;;;;20.00;12.25;;;;;11.41;80.74;100704.78;5072567;28;45315;-62
2024/03/14 08:09:43;;;;;;;;;8.00;8.00;;;;;11.46;80.42;100699.41;5074452;27;46315;-62
2024/03/14 08:12:09;;;;;;;;;16.00;12.25;;;;;11.50;80.61;100698.38;5071619;28;45327;-62
2024/03/14 08:14:35;;;;;;;;;15.50;11.75;;;;;11.52;80.18;100702.66;5071757;28;45484;-61
2024/03/14 08:17:01;;;;;;;;;15.00;11.50;;;;;11.56;80.09;100703.41;5066041;28;45446;-62
2024/03/14 08:19:28;;;;;;;;;7.75;7.25;;;;;11.59;80.04;100692.84;5065756;28;47150;-62
2024/03/14 08:21:56;;;;;;;;;12.50;12.00;;;;;11.61;79.48;100703.28;5071336;28;45442;-61
2024/03/14 08:24:21;;;;;;;;;13.00;13.00;;;;;11.63;79.77;100688.38;5077759;28;45205;-62
2024/03/14 08:26:47;;;;;;;;;18.75;13.50;;;;;11.69;79.73;100691.66;5065117;28;45612;-62
2024/03/14 08:29:12;;;;;;;;;16.75;12.75;;;;;11.74;79.40;100686.28;5065373;28;47002;-62
2024/03/14 08:31:40;;;;;;;;;13.00;12.00;;;;;11.77;79.31;100683.53;5067227;28;45421;-62
2024/03/14 08:34:08;;;;;;;;;14.75;11.75;;;;;11.87;79.59;100686.72;5065932;28;45558;-62
2024/03/14 08:36:33;;;;;;;;;11.50;10.75;;;;;11.92;79.12;100684.84;5074529;28;45547;-62
2024/03/14 08:38:58;;;;;;;;;11.50;11.00;;;;;11.97;78.56;100680.28;5061504;28;49650;-62
2024/03/14 08:41:24;;;;;;;;;13.50;11.00;;;;;12.01;78.56;100674.03;5081325;28;60579;-62
2024/03/14 08:43:50;;;;;;;;;16.75;10.75;;;;;12.04;78.14;100675.69;5067769;27;51455;-62
2024/03/14 08:46:15;;;;;;;;;14.25;11.00;;;;;12.06;77.84;100676.50;5078539;27;45457;-62
2024/03/14 08:48:42;;;;;;;;;15.00;9.00;;;;;12.10;77.77;100676.34;5073233;27;46193;-63
2024/03/14 08:51:08;;;;;;;;;12.00;9.75;;;;;12.12;77.81;100677.13;5082147;27;45207;-62
2024/03/14 08:56:19;;;;;;;;;16.50;11.50;;;;;12.27;77.39;100673.13;5069353;27;45202;-63
2024/03/14 08:58:47;;;;;;;;;13.50;9.25;;;;;12.35;77.06;100673.72;5082901;27;45509;-62
2024/03/14 09:01:12;;;;;;;;;16.75;10.75;;;;;12.42;77.23;100676.13;5077786;27;45329;-63
2024/03/14 09:03:37;;;;;;;;;11.00;8.25;;;;;12.48;76.70;100670.66;5071898;28;45584;-63
2024/03/14 09:06:05;;;;;;;;;10.50;8.25;;;;;12.53;76.42;100671.34;5078382;27;45307;-62
2024/03/14 09:08:30;;;;;;;;;14.00;10.25;;;;;12.63;76.50;100672.72;5071336;28;46440;-62
2024/03/14 09:10:56;;;;;;;;;12.00;10.25;;;;;12.70;75.84;100663.72;5075781;27;45406;-62
2024/03/14 09:13:21;;;;;;;;;15.00;12.00;;;;;12.79;76.10;100667.75;5072839;28;45214;-62
2024/03/14 09:15:50;;;;;;;;;11.50;9.25;;;;;12.87;75.80;100664.84;5068503;27;56417;-63
2024/03/14 09:18:17;;;;;;;;;11.50;11.00;;;;;12.94;75.61;100654.97;5070371;28;47432;-63
2024/03/14 09:20:44;;;;;;;;;14.00;10.75;;;;;12.98;75.42;100660.06;5079548;27;45438;-63
2024/03/14 09:23:15;;;;;;;;;10.00;9.25;;;;;13.07;74.88;100654.44;5082078;27;45375;-63
2024/03/14 09:25:41;;;;;;;;;14.00;10.25;;;;;13.14;74.71;100657.69;5080484;27;45517;-62
2024/03/14 09:28:08;;;;;;;;;13.25;9.50;;;;;13.19;74.40;100658.38;5082421;27;46331;-62
2024/03/14 09:30:34;;;;;;;;;10.50;10.50;;;;;13.21;74.38;100647.78;5067504;28;45256;-62
2024/03/14 09:33:00;;;;;;;;;15.25;11.25;;;;;13.25;74.20;100650.22;5067434;28;45426;-62
2024/03/14 09:35:25;;;;;;;;;13.00;11.75;;;;;13.34;73.81;100651.69;5079896;27;72663;-63
2024/03/14 09:37:54;;;;;;;;;15.25;13.00;;;;;13.43;73.72;100648.66;5098166;27;45422;-63
2024/03/14 09:40:21;;;;;;;;;17.50;11.25;;;;;13.55;73.65;100651.75;5066205;28;45442;-62
2024/03/14 09:42:56;;;;;;;;;14.50;11.75;;;;;13.67;73.14;100649.47;5070174;27;45399;-63
2024/03/14 09:45:25;;;;;;;;;12.00;10.75;;;;;13.78;72.71;100651.63;5092077;27;45289;-63
2024/03/14 09:47:51;;;;;;;;;15.00;13.00;;;;;13.91;72.80;100645.88;5073620;28;46179;-62
2024/03/14 09:50:21;;;;;;;;;13.00;9.25;;;;;13.99;72.24;100636.72;5069686;27;45430;-62
2024/03/14 09:52:51;;;;;;;;;13.00;11.25;;;;;14.11;72.38;100640.63;5080773;27;45284;-62
2024/03/14 09:55:17;;;;;;;;;15.00;11.75;;;;;14.22;72.01;100641.00;5089668;27;45453;-62
2024/03/14 09:57:43;;;;;;;;;13.00;10.00;;;;;14.37;71.43;100649.13;5074108;27;45557;-62
2024/03/14 10:00:12;;;;;;;;;11.25;11.00;;;;;14.50;71.05;100647.69;5082156;27;45504;-62
2024/03/14 10:02:40;;;;;;;;;10.50;9.00;;;;;14.62;70.69;100641.03;5077494;27;45394;-62
2024/03/14 10:05:11;;;;;;;;;13.75;12.50;;;;;14.73;70.76;100627.34;5080964;28;45256;-62
2024/03/14 10:07:40;;;;;;;;;15.00;11.25;;;;;14.89;70.22;100624.88;5077548;28;45423;-62
2024/03/14 10:10:06;;;;;;;;;13.75;10.00;;;;;15.01;70.00;100626.94;5075470;28;45606;-62
2024/03/14 10:12:32;;;;;;;;;54.50;42.25;;;;;15.12;69.63;100626.41;5066325;28;45303;-63
2024/03/14 10:15:00;;;;;;;;;58.50;44.00;;;;;15.27;69.30;100625.69;5077440;28;45541;-62
2024/03/14 10:17:31;;;;;;;;;14.50;13.00;;;;;15.38;68.86;100618.09;5080757;27;45310;-62
2024/03/14 10:20:00;;;;;;;;;12.25;12.25;;;;;15.46;68.53;100612.47;5068778;28;45280;-61
2024/03/14 10:22:29;;;;;;;;;12.25;10.75;;;;;15.57;68.21;100601.38;5080626;27;63055;-62
2024/03/14 10:24:54;;;;;;;;;13.75;11.25;;;;;15.67;67.68;100612.31;5080298;28;45427;-62
2024/03/14 10:27:19;;;;;;;;;15.00;13.75;;;;;15.73;67.61;100604.94;5068214;27;45299;-62
2024/03/14 10:29:45;;;;;;;;;14.75;12.50;;;;;15.79;67.12;100605.59;5067105;28;71697;-62
2024/03/14 10:32:11;;;;;;;;;16.75;12.00;;;;;15.83;67.02;100605.38;5062800;28;45357;-63
2024/03/14 10:34:37;;;;;;;;;15.00;9.25;;;;;15.85;66.87;100598.22;5077430;27;45467;-62
2024/03/14 10:37:12;;;;;;;;;10.25;9.00;;;;;15.92;66.57;100594.34;5068332;27;45264;-62
2024/03/14 10:39:40;;;;;;;;;15.25;13.00;;;;;16.03;66.87;100590.31;5094036;27;45820;-62
2024/03/14 10:42:07;;;;;;;;;11.50;10.00;;;;;16.16;66.29;100582.59;5067468;28;45426;-62
2024/03/14 10:44:33;;;;;;;;;12.50;10.75;;;;;16.25;65.93;100576.81;5062225;27;45503;-62
2024/03/14 10:46:59;;;;;;;;;13.00;10.50;;;;;16.33;65.88;100577.25;5072188;27;46075;-62
2024/03/14 10:49:24;;;;;;;;;12.75;10.00;;;;;16.42;65.79;100573.28;5077290;28;45285;-62
2024/03/14 10:51:53;;;;;;;;;11.25;9.00;;;;;16.54;65.78;100579.66;5072878;28;45284;-62
2024/03/14 10:54:21;;;;;;;;;14.25;10.50;;;;;16.63;65.06;100563.34;5062197;28;48446;-63
2024/03/14 10:56:49;;;;;;;;;18.75;11.25;;;;;16.74;64.72;100565.38;5062580;28;46882;-61
2024/03/14 10:59:16;;;;;;;;;13.50;10.00;;;;;16.79;64.50;100568.63;5064326;27;45261;-62
2024/03/14 11:01:49;;;;;;;;;11.50;10.75;;;;;16.85;64.23;100561.22;5062580;28;45387;-62
2024/03/14 11:04:15;;;;;;;;;14.50;12.75;;;;;16.89;64.00;100561.88;5074956;27;45262;-62
2024/03/14 11:06:40;;;;;;;;;12.75;10.50;;;;;16.92;63.75;100563.53;5061502;27;75927;-62
2024/03/14 11:09:08;;;;;;;;;10.00;9.50;;;;;16.96;63.57;100563.25;5067863;27;68893;-62
2024/03/14 11:11:36;;;;;;;;;13.25;11.00;;;;;17.01;63.60;100553.28;5094481;27;45431;-62